sensor_id;sensor_type;location;lat;lon;timestamp;P1;durP1;ratioP1;P2;durP2;ratioP2
65477;SDS011;53678;39.642;22.430;2023-02-26T00:02:17;27.60;;;12.98;;
65477;SDS011;53678;39.642;22.430;2023-02-26T00:04:42;29.45;;;13.18;;
65477;SDS011;53678;39.642;22.430;2023-02-26T00:07:08;32.28;;;13.90;;
65477;SDS011;53678;39.642;22.430;2023-02-26T00:09:34;29.15;;;14.10;;
65477;SDS011;53678;39.642;22.430;2023-02-26T00:12:00;27.67;;;12.88;;
65477;SDS011;53678;39.642;22.430;2023-02-26T00:14:26;31.20;;;13.85;;
65477;SDS011;53678;39.642;22.430;2023-02-26T00:19:40;34.08;;;13.85;;
65477;SDS011;53678;39.642;22.430;2023-02-26T00:22:06;27.08;;;13.55;;
65477;SDS011;53678;39.642;22.430;2023-02-26T00:24:31;33.40;;;14.77;;
65477;SDS011;53678;39.642;22.430;2023-02-26T00:26:57;33.40;;;12.95;;
65477;SDS011;53678;39.642;22.430;2023-02-26T00:29:24;26.65;;;12.13;;
65477;SDS011;53678;39.642;22.430;2023-02-26T00:31:51;29.05;;;14.60;;
65477;SDS011;53678;39.642;22.430;2023-02-26T00:34:17;32.45;;;14.85;;
65477;SDS011;53678;39.642;22.430;2023-02-26T00:39:39;39.00;;;14.95;;
65477;SDS011;53678;39.642;22.430;2023-02-26T00:44:41;34.50;;;15.50;;
65477;SDS011;53678;39.642;22.430;2023-02-26T00:52:47;33.03;;;14.65;;
65477;SDS011;53678;39.642;22.430;2023-02-26T00:55:25;37.78;;;16.38;;
65477;SDS011;53678;39.642;22.430;2023-02-26T00:57:51;30.95;;;14.63;;
65477;SDS011;53678;39.642;22.430;2023-02-26T01:00:17;33.40;;;14.45;;
65477;SDS011;53678;39.642;22.430;2023-02-26T01:02:43;33.22;;;13.18;;
65477;SDS011;53678;39.642;22.430;2023-02-26T01:05:10;25.30;;;12.65;;
65477;SDS011;53678;39.642;22.430;2023-02-26T01:07:46;43.33;;;14.30;;
65477;SDS011;53678;39.642;22.430;2023-02-26T01:10:19;38.28;;;14.63;;
65477;SDS011;53678;39.642;22.430;2023-02-26T01:12:46;34.33;;;12.98;;
65477;SDS011;53678;39.642;22.430;2023-02-26T01:15:12;27.65;;;12.95;;
65477;SDS011;53678;39.642;22.430;2023-02-26T01:17:46;28.77;;;11.23;;
65477;SDS011;53678;39.642;22.430;2023-02-26T01:20:17;29.98;;;11.60;;
65477;SDS011;53678;39.642;22.430;2023-02-26T01:23:05;33.75;;;11.95;;
65477;SDS011;53678;39.642;22.430;2023-02-26T01:25:50;29.30;;;11.02;;
65477;SDS011;53678;39.642;22.430;2023-02-26T01:28:22;32.20;;;9.98;;
65477;SDS011;53678;39.642;22.430;2023-02-26T01:30:49;21.05;;;11.48;;
65477;SDS011;53678;39.642;22.430;2023-02-26T01:49:51;29.73;;;10.13;;
65477;SDS011;53678;39.642;22.430;2023-02-26T01:55:14;28.55;;;10.13;;
65477;SDS011;53678;39.642;22.430;2023-02-26T01:57:41;24.95;;;9.80;;
65477;SDS011;53678;39.642;22.430;2023-02-26T02:00:08;27.13;;;10.70;;
65477;SDS011;53678;39.642;22.430;2023-02-26T02:02:37;28.75;;;10.70;;
65477;SDS011;53678;39.642;22.430;2023-02-26T02:05:14;27.65;;;11.55;;
65477;SDS011;53678;39.642;22.430;2023-02-26T02:07:45;31.00;;;11.75;;
65477;SDS011;53678;39.642;22.430;2023-02-26T02:10:11;33.22;;;13.85;;
65477;SDS011;53678;39.642;22.430;2023-02-26T02:12:39;29.00;;;13.57;;
65477;SDS011;53678;39.642;22.430;2023-02-26T02:15:14;33.97;;;13.45;;
65477;SDS011;53678;39.642;22.430;2023-02-26T02:23:08;29.17;;;12.23;;
65477;SDS011;53678;39.642;22.430;2023-02-26T02:36:19;22.08;;;9.55;;
65477;SDS011;53678;39.642;22.430;2023-02-26T02:39:01;27.08;;;8.02;;
65477;SDS011;53678;39.642;22.430;2023-02-26T02:41:33;26.75;;;9.45;;
65477;SDS011;53678;39.642;22.430;2023-02-26T02:44:03;23.65;;;9.05;;
65477;SDS011;53678;39.642;22.430;2023-02-26T02:46:35;23.75;;;10.52;;
65477;SDS011;53678;39.642;22.430;2023-02-26T02:49:04;22.42;;;9.48;;
65477;SDS011;53678;39.642;22.430;2023-02-26T02:54:30;22.98;;;10.40;;
65477;SDS011;53678;39.642;22.430;2023-02-26T02:57:14;22.00;;;8.52;;
65477;SDS011;53678;39.642;22.430;2023-02-26T02:59:53;22.17;;;7.72;;
65477;SDS011;53678;39.642;22.430;2023-02-26T03:02:35;24.40;;;8.82;;
65477;SDS011;53678;39.642;22.430;2023-02-26T03:05:21;21.48;;;8.55;;
65477;SDS011;53678;39.642;22.430;2023-02-26T03:07:54;21.90;;;7.57;;
65477;SDS011;53678;39.642;22.430;2023-02-26T03:10:23;23.75;;;9.20;;
65477;SDS011;53678;39.642;22.430;2023-02-26T03:12:49;22.58;;;8.50;;
65477;SDS011;53678;39.642;22.430;2023-02-26T03:15:25;26.00;;;9.30;;
65477;SDS011;53678;39.642;22.430;2023-02-26T03:18:05;26.10;;;9.52;;
65477;SDS011;53678;39.642;22.430;2023-02-26T03:20:55;29.40;;;9.90;;
65477;SDS011;53678;39.642;22.430;2023-02-26T03:23:35;23.02;;;9.45;;
65477;SDS011;53678;39.642;22.430;2023-02-26T03:26:26;26.92;;;10.43;;
65477;SDS011;53678;39.642;22.430;2023-02-26T03:29:02;23.90;;;11.13;;
65477;SDS011;53678;39.642;22.430;2023-02-26T03:31:39;29.88;;;10.93;;
65477;SDS011;53678;39.642;22.430;2023-02-26T03:39:33;27.02;;;10.57;;
65477;SDS011;53678;39.642;22.430;2023-02-26T03:44:53;28.70;;;9.70;;
65477;SDS011;53678;39.642;22.430;2023-02-26T03:47:26;19.58;;;9.02;;
65477;SDS011;53678;39.642;22.430;2023-02-26T03:49:58;24.02;;;9.75;;
65477;SDS011;53678;39.642;22.430;2023-02-26T03:52:46;22.40;;;10.98;;
65477;SDS011;53678;39.642;22.430;2023-02-26T03:55:29;25.88;;;9.10;;
65477;SDS011;53678;39.642;22.430;2023-02-26T03:58:15;32.33;;;10.30;;
65477;SDS011;53678;39.642;22.430;2023-02-26T04:00:52;25.30;;;8.82;;
65477;SDS011;53678;39.642;22.430;2023-02-26T04:03:35;24.35;;;9.50;;
65477;SDS011;53678;39.642;22.430;2023-02-26T04:06:10;34.83;;;10.75;;
65477;SDS011;53678;39.642;22.430;2023-02-26T04:08:37;24.33;;;10.40;;
65477;SDS011;53678;39.642;22.430;2023-02-26T04:13:31;34.30;;;13.20;;
65477;SDS011;53678;39.642;22.430;2023-02-26T04:15:57;30.35;;;15.23;;
65477;SDS011;53678;39.642;22.430;2023-02-26T04:18:23;26.55;;;13.38;;
65477;SDS011;53678;39.642;22.430;2023-02-26T04:20:49;26.98;;;12.68;;
65477;SDS011;53678;39.642;22.430;2023-02-26T04:23:15;30.17;;;15.18;;
65477;SDS011;53678;39.642;22.430;2023-02-26T04:25:41;28.00;;;13.93;;
65477;SDS011;53678;39.642;22.430;2023-02-26T04:28:08;31.90;;;14.13;;
65477;SDS011;53678;39.642;22.430;2023-02-26T04:30:34;29.48;;;13.98;;
65477;SDS011;53678;39.642;22.430;2023-02-26T04:33:01;33.10;;;15.52;;
65477;SDS011;53678;39.642;22.430;2023-02-26T04:35:28;31.05;;;14.02;;
65477;SDS011;53678;39.642;22.430;2023-02-26T04:37:56;34.80;;;13.70;;
65477;SDS011;53678;39.642;22.430;2023-02-26T04:40:21;27.45;;;13.93;;
65477;SDS011;53678;39.642;22.430;2023-02-26T04:42:50;27.80;;;12.85;;
65477;SDS011;53678;39.642;22.430;2023-02-26T04:45:21;26.63;;;12.55;;
65477;SDS011;53678;39.642;22.430;2023-02-26T04:47:47;29.42;;;13.68;;
65477;SDS011;53678;39.642;22.430;2023-02-26T04:50:13;28.23;;;13.75;;
65477;SDS011;53678;39.642;22.430;2023-02-26T04:52:40;29.33;;;12.98;;
65477;SDS011;53678;39.642;22.430;2023-02-26T04:55:06;21.65;;;12.30;;
65477;SDS011;53678;39.642;22.430;2023-02-26T04:57:36;27.52;;;13.10;;
65477;SDS011;53678;39.642;22.430;2023-02-26T05:00:02;32.60;;;12.07;;
65477;SDS011;53678;39.642;22.430;2023-02-26T05:02:33;29.38;;;12.88;;
65477;SDS011;53678;39.642;22.430;2023-02-26T05:04:59;36.05;;;15.00;;
65477;SDS011;53678;39.642;22.430;2023-02-26T05:07:24;28.20;;;14.55;;
65477;SDS011;53678;39.642;22.430;2023-02-26T05:09:50;30.70;;;14.98;;
65477;SDS011;53678;39.642;22.430;2023-02-26T05:12:16;34.60;;;16.40;;
65477;SDS011;53678;39.642;22.430;2023-02-26T05:14:42;31.88;;;14.98;;
65477;SDS011;53678;39.642;22.430;2023-02-26T05:17:07;35.00;;;14.98;;
65477;SDS011;53678;39.642;22.430;2023-02-26T05:19:33;30.20;;;14.38;;
65477;SDS011;53678;39.642;22.430;2023-02-26T05:21:59;33.03;;;15.38;;
65477;SDS011;53678;39.642;22.430;2023-02-26T05:24:25;35.65;;;15.50;;
65477;SDS011;53678;39.642;22.430;2023-02-26T05:26:51;38.05;;;14.65;;
65477;SDS011;53678;39.642;22.430;2023-02-26T05:29:17;30.60;;;13.35;;
65477;SDS011;53678;39.642;22.430;2023-02-26T05:31:43;28.33;;;14.27;;
65477;SDS011;53678;39.642;22.430;2023-02-26T05:34:09;34.00;;;15.93;;
65477;SDS011;53678;39.642;22.430;2023-02-26T05:36:35;28.30;;;14.57;;
65477;SDS011;53678;39.642;22.430;2023-02-26T05:39:00;28.83;;;13.65;;
65477;SDS011;53678;39.642;22.430;2023-02-26T05:41:26;31.35;;;14.23;;
65477;SDS011;53678;39.642;22.430;2023-02-26T05:43:52;35.20;;;14.75;;
65477;SDS011;53678;39.642;22.430;2023-02-26T05:46:18;36.22;;;14.98;;
65477;SDS011;53678;39.642;22.430;2023-02-26T05:48:43;34.20;;;13.25;;
65477;SDS011;53678;39.642;22.430;2023-02-26T05:51:09;34.03;;;14.65;;
65477;SDS011;53678;39.642;22.430;2023-02-26T05:53:35;33.08;;;13.80;;
65477;SDS011;53678;39.642;22.430;2023-02-26T05:56:01;34.20;;;14.43;;
65477;SDS011;53678;39.642;22.430;2023-02-26T05:58:26;37.72;;;13.75;;
65477;SDS011;53678;39.642;22.430;2023-02-26T06:00:52;32.30;;;13.95;;
65477;SDS011;53678;39.642;22.430;2023-02-26T06:03:18;38.13;;;14.27;;
65477;SDS011;53678;39.642;22.430;2023-02-26T06:05:44;34.05;;;14.25;;
65477;SDS011;53678;39.642;22.430;2023-02-26T06:08:09;28.02;;;13.35;;
65477;SDS011;53678;39.642;22.430;2023-02-26T06:10:39;31.25;;;13.15;;
65477;SDS011;53678;39.642;22.430;2023-02-26T06:13:05;24.17;;;12.45;;
65477;SDS011;53678;39.642;22.430;2023-02-26T06:15:31;25.65;;;12.52;;
65477;SDS011;53678;39.642;22.430;2023-02-26T06:17:56;30.08;;;14.07;;
65477;SDS011;53678;39.642;22.430;2023-02-26T06:20:22;30.63;;;13.65;;
65477;SDS011;53678;39.642;22.430;2023-02-26T06:22:48;26.98;;;12.05;;
65477;SDS011;53678;39.642;22.430;2023-02-26T06:25:14;23.67;;;12.68;;
65477;SDS011;53678;39.642;22.430;2023-02-26T06:27:40;28.83;;;12.20;;
65477;SDS011;53678;39.642;22.430;2023-02-26T06:30:06;29.27;;;12.38;;
65477;SDS011;53678;39.642;22.430;2023-02-26T06:32:32;26.52;;;11.48;;
65477;SDS011;53678;39.642;22.430;2023-02-26T06:34:58;24.15;;;10.98;;
65477;SDS011;53678;39.642;22.430;2023-02-26T06:37:23;23.67;;;10.35;;
65477;SDS011;53678;39.642;22.430;2023-02-26T06:39:49;26.45;;;10.63;;
65477;SDS011;53678;39.642;22.430;2023-02-26T06:42:15;16.20;;;8.93;;
65477;SDS011;53678;39.642;22.430;2023-02-26T06:44:41;23.33;;;8.70;;
65477;SDS011;53678;39.642;22.430;2023-02-26T06:47:06;22.95;;;9.52;;
65477;SDS011;53678;39.642;22.430;2023-02-26T06:49:32;26.58;;;10.02;;
65477;SDS011;53678;39.642;22.430;2023-02-26T06:51:57;16.55;;;9.30;;
65477;SDS011;53678;39.642;22.430;2023-02-26T06:54:23;27.25;;;10.90;;
65477;SDS011;53678;39.642;22.430;2023-02-26T06:56:49;26.40;;;11.68;;
65477;SDS011;53678;39.642;22.430;2023-02-26T06:59:15;26.70;;;13.10;;
65477;SDS011;53678;39.642;22.430;2023-02-26T07:01:40;30.60;;;12.40;;
65477;SDS011;53678;39.642;22.430;2023-02-26T07:04:06;22.75;;;11.45;;
65477;SDS011;53678;39.642;22.430;2023-02-26T07:06:32;22.92;;;11.70;;
65477;SDS011;53678;39.642;22.430;2023-02-26T07:08:58;20.60;;;10.30;;
65477;SDS011;53678;39.642;22.430;2023-02-26T07:11:23;21.60;;;10.20;;
65477;SDS011;53678;39.642;22.430;2023-02-26T07:13:49;16.67;;;8.13;;
65477;SDS011;53678;39.642;22.430;2023-02-26T07:16:19;22.00;;;9.68;;
65477;SDS011;53678;39.642;22.430;2023-02-26T07:18:44;19.77;;;9.43;;
65477;SDS011;53678;39.642;22.430;2023-02-26T07:21:10;16.30;;;8.80;;
65477;SDS011;53678;39.642;22.430;2023-02-26T07:23:36;20.48;;;9.23;;
65477;SDS011;53678;39.642;22.430;2023-02-26T07:26:03;17.08;;;8.32;;
65477;SDS011;53678;39.642;22.430;2023-02-26T07:28:29;32.25;;;9.07;;
65477;SDS011;53678;39.642;22.430;2023-02-26T07:30:55;21.95;;;8.98;;
65477;SDS011;53678;39.642;22.430;2023-02-26T07:33:21;23.98;;;9.75;;
65477;SDS011;53678;39.642;22.430;2023-02-26T07:35:48;23.10;;;8.80;;
65477;SDS011;53678;39.642;22.430;2023-02-26T07:38:13;20.40;;;8.30;;
65477;SDS011;53678;39.642;22.430;2023-02-26T07:40:39;23.52;;;10.30;;
65477;SDS011;53678;39.642;22.430;2023-02-26T07:43:05;20.25;;;9.70;;
65477;SDS011;53678;39.642;22.430;2023-02-26T07:45:30;23.38;;;10.18;;
65477;SDS011;53678;39.642;22.430;2023-02-26T07:47:56;22.60;;;10.43;;
65477;SDS011;53678;39.642;22.430;2023-02-26T07:50:22;27.30;;;9.73;;
65477;SDS011;53678;39.642;22.430;2023-02-26T07:52:50;21.75;;;8.95;;
65477;SDS011;53678;39.642;22.430;2023-02-26T07:55:17;26.88;;;8.95;;
65477;SDS011;53678;39.642;22.430;2023-02-26T07:57:43;33.53;;;9.48;;
65477;SDS011;53678;39.642;22.430;2023-02-26T08:07:43;19.85;;;8.05;;
65477;SDS011;53678;39.642;22.430;2023-02-26T08:10:09;17.10;;;7.55;;
65477;SDS011;53678;39.642;22.430;2023-02-26T08:12:36;15.20;;;6.60;;
65477;SDS011;53678;39.642;22.430;2023-02-26T08:15:02;20.73;;;6.30;;
65477;SDS011;53678;39.642;22.430;2023-02-26T08:17:29;17.95;;;6.07;;
65477;SDS011;53678;39.642;22.430;2023-02-26T08:19:55;23.95;;;5.88;;
65477;SDS011;53678;39.642;22.430;2023-02-26T08:22:20;14.98;;;5.43;;
65477;SDS011;53678;39.642;22.430;2023-02-26T08:24:48;14.02;;;5.60;;
65477;SDS011;53678;39.642;22.430;2023-02-26T08:27:15;12.20;;;4.90;;
65477;SDS011;53678;39.642;22.430;2023-02-26T08:29:41;18.42;;;5.22;;
65477;SDS011;53678;39.642;22.430;2023-02-26T08:32:08;14.52;;;4.57;;
65477;SDS011;53678;39.642;22.430;2023-02-26T08:34:36;23.27;;;4.97;;
65477;SDS011;53678;39.642;22.430;2023-02-26T08:37:02;19.85;;;5.18;;
65477;SDS011;53678;39.642;22.430;2023-02-26T08:39:27;16.40;;;5.10;;
65477;SDS011;53678;39.642;22.430;2023-02-26T08:41:57;14.30;;;4.82;;
65477;SDS011;53678;39.642;22.430;2023-02-26T08:44:23;15.40;;;4.28;;
65477;SDS011;53678;39.642;22.430;2023-02-26T08:46:49;18.42;;;5.35;;
65477;SDS011;53678;39.642;22.430;2023-02-26T08:49:14;19.75;;;4.95;;
65477;SDS011;53678;39.642;22.430;2023-02-26T08:51:40;12.32;;;4.63;;
65477;SDS011;53678;39.642;22.430;2023-02-26T08:54:06;16.23;;;5.05;;
65477;SDS011;53678;39.642;22.430;2023-02-26T08:56:33;20.67;;;4.55;;
65477;SDS011;53678;39.642;22.430;2023-02-26T08:58:58;10.38;;;4.47;;
65477;SDS011;53678;39.642;22.430;2023-02-26T09:01:24;20.90;;;5.28;;
65477;SDS011;53678;39.642;22.430;2023-02-26T09:03:50;17.48;;;4.45;;
65477;SDS011;53678;39.642;22.430;2023-02-26T09:06:15;15.65;;;4.85;;
65477;SDS011;53678;39.642;22.430;2023-02-26T09:08:42;12.38;;;4.63;;
65477;SDS011;53678;39.642;22.430;2023-02-26T09:11:08;17.65;;;4.90;;
65477;SDS011;53678;39.642;22.430;2023-02-26T09:13:34;9.75;;;3.85;;
65477;SDS011;53678;39.642;22.430;2023-02-26T09:16:00;15.85;;;5.07;;
65477;SDS011;53678;39.642;22.430;2023-02-26T09:18:26;18.35;;;4.65;;
65477;SDS011;53678;39.642;22.430;2023-02-26T09:20:52;16.00;;;4.22;;
65477;SDS011;53678;39.642;22.430;2023-02-26T09:23:18;12.55;;;4.50;;
65477;SDS011;53678;39.642;22.430;2023-02-26T09:25:45;16.48;;;7.30;;
65477;SDS011;53678;39.642;22.430;2023-02-26T09:28:11;21.10;;;5.78;;
65477;SDS011;53678;39.642;22.430;2023-02-26T09:30:36;14.32;;;5.55;;
65477;SDS011;53678;39.642;22.430;2023-02-26T09:33:02;20.40;;;5.28;;
65477;SDS011;53678;39.642;22.430;2023-02-26T09:35:28;18.33;;;5.38;;
65477;SDS011;53678;39.642;22.430;2023-02-26T09:37:53;18.45;;;5.03;;
65477;SDS011;53678;39.642;22.430;2023-02-26T09:40:22;13.70;;;4.20;;
65477;SDS011;53678;39.642;22.430;2023-02-26T09:42:58;15.27;;;4.05;;
65477;SDS011;53678;39.642;22.430;2023-02-26T09:45:37;14.77;;;4.15;;
65477;SDS011;53678;39.642;22.430;2023-02-26T09:48:05;14.52;;;5.35;;
65477;SDS011;53678;39.642;22.430;2023-02-26T09:50:40;15.27;;;4.22;;
65477;SDS011;53678;39.642;22.430;2023-02-26T09:53:19;12.98;;;4.20;;
65477;SDS011;53678;39.642;22.430;2023-02-26T09:55:49;11.02;;;3.90;;
65477;SDS011;53678;39.642;22.430;2023-02-26T10:06:28;16.27;;;4.70;;
65477;SDS011;53678;39.642;22.430;2023-02-26T10:09:00;13.05;;;3.85;;
65477;SDS011;53678;39.642;22.430;2023-02-26T10:14:15;12.50;;;4.18;;
65477;SDS011;53678;39.642;22.430;2023-02-26T10:16:44;12.18;;;4.55;;
65477;SDS011;53678;39.642;22.430;2023-02-26T10:19:18;9.25;;;3.92;;
65477;SDS011;53678;39.642;22.430;2023-02-26T10:24:54;13.57;;;4.80;;
65477;SDS011;53678;39.642;22.430;2023-02-26T10:30:41;10.43;;;3.78;;
65477;SDS011;53678;39.642;22.430;2023-02-26T10:35:51;18.38;;;4.28;;
65477;SDS011;53678;39.642;22.430;2023-02-26T10:38:24;17.52;;;4.85;;
65477;SDS011;53678;39.642;22.430;2023-02-26T10:41:01;10.35;;;4.32;;
65477;SDS011;53678;39.642;22.430;2023-02-26T10:43:38;15.23;;;6.22;;
65477;SDS011;53678;39.642;22.430;2023-02-26T10:48:51;16.33;;;6.00;;
65477;SDS011;53678;39.642;22.430;2023-02-26T10:51:39;18.42;;;7.20;;
65477;SDS011;53678;39.642;22.430;2023-02-26T10:54:23;16.33;;;4.60;;
65477;SDS011;53678;39.642;22.430;2023-02-26T10:56:55;17.75;;;7.18;;
65477;SDS011;53678;39.642;22.430;2023-02-26T10:59:22;22.52;;;6.05;;
65477;SDS011;53678;39.642;22.430;2023-02-26T11:01:48;21.88;;;9.57;;
65477;SDS011;53678;39.642;22.430;2023-02-26T11:04:18;26.90;;;11.43;;
65477;SDS011;53678;39.642;22.430;2023-02-26T11:12:33;19.35;;;8.98;;
65477;SDS011;53678;39.642;22.430;2023-02-26T11:14:41;19.67;;;9.48;;
65477;SDS011;53678;39.642;22.430;2023-02-26T11:17:27;30.65;;;14.30;;
65477;SDS011;53678;39.642;22.430;2023-02-26T11:20:01;19.27;;;9.63;;
65477;SDS011;53678;39.642;22.430;2023-02-26T11:22:32;13.00;;;5.68;;
65477;SDS011;53678;39.642;22.430;2023-02-26T11:25:00;19.23;;;7.13;;
65477;SDS011;53678;39.642;22.430;2023-02-26T11:27:34;16.60;;;7.82;;
65477;SDS011;53678;39.642;22.430;2023-02-26T11:30:06;16.83;;;7.13;;
65477;SDS011;53678;39.642;22.430;2023-02-26T11:32:42;30.30;;;17.48;;
65477;SDS011;53678;39.642;22.430;2023-02-26T11:35:13;15.10;;;7.43;;
65477;SDS011;53678;39.642;22.430;2023-02-26T11:37:40;20.63;;;9.63;;
65477;SDS011;53678;39.642;22.430;2023-02-26T11:40:18;28.17;;;10.63;;
65477;SDS011;53678;39.642;22.430;2023-02-26T11:42:49;22.27;;;12.00;;
65477;SDS011;53678;39.642;22.430;2023-02-26T11:45:19;23.80;;;11.68;;
65477;SDS011;53678;39.642;22.430;2023-02-26T11:47:47;10.77;;;4.43;;
65477;SDS011;53678;39.642;22.430;2023-02-26T11:50:17;29.50;;;14.95;;
65477;SDS011;53678;39.642;22.430;2023-02-26T11:52:53;18.75;;;11.05;;
65477;SDS011;53678;39.642;22.430;2023-02-26T11:57:54;24.30;;;11.77;;
65477;SDS011;53678;39.642;22.430;2023-02-26T12:03:05;12.95;;;5.45;;
65477;SDS011;53678;39.642;22.430;2023-02-26T12:05:35;34.15;;;14.40;;
65477;SDS011;53678;39.642;22.430;2023-02-26T12:08:02;46.00;;;21.55;;
65477;SDS011;53678;39.642;22.430;2023-02-26T12:10:56;15.73;;;6.72;;
65477;SDS011;53678;39.642;22.430;2023-02-26T12:16:02;25.38;;;10.82;;
65477;SDS011;53678;39.642;22.430;2023-02-26T12:18:36;21.95;;;11.85;;
65477;SDS011;53678;39.642;22.430;2023-02-26T12:26:34;38.28;;;15.15;;
65477;SDS011;53678;39.642;22.430;2023-02-26T12:32:14;16.17;;;6.50;;
65477;SDS011;53678;39.642;22.430;2023-02-26T12:37:52;13.80;;;4.63;;
65477;SDS011;53678;39.642;22.430;2023-02-26T12:40:33;21.30;;;11.98;;
65477;SDS011;53678;39.642;22.430;2023-02-26T12:43:29;14.02;;;4.70;;
65477;SDS011;53678;39.642;22.430;2023-02-26T12:54:33;13.88;;;4.10;;
65477;SDS011;53678;39.642;22.430;2023-02-26T12:57:26;10.45;;;2.97;;
65477;SDS011;53678;39.642;22.430;2023-02-26T13:00:21;11.32;;;3.22;;
65477;SDS011;53678;39.642;22.430;2023-02-26T13:03:31;13.23;;;3.35;;
65477;SDS011;53678;39.642;22.430;2023-02-26T13:12:01;13.18;;;3.70;;
65477;SDS011;53678;39.642;22.430;2023-02-26T13:19:44;9.47;;;2.73;;
65477;SDS011;53678;39.642;22.430;2023-02-26T13:22:16;12.18;;;4.47;;
65477;SDS011;53678;39.642;22.430;2023-02-26T13:27:24;11.68;;;3.97;;
65477;SDS011;53678;39.642;22.430;2023-02-26T13:30:00;13.90;;;5.95;;
65477;SDS011;53678;39.642;22.430;2023-02-26T13:32:50;16.58;;;8.60;;
65477;SDS011;53678;39.642;22.430;2023-02-26T13:35:38;17.63;;;7.00;;
65477;SDS011;53678;39.642;22.430;2023-02-26T13:38:12;17.33;;;7.22;;
65477;SDS011;53678;39.642;22.430;2023-02-26T13:46:22;11.05;;;5.07;;
65477;SDS011;53678;39.642;22.430;2023-02-26T13:51:38;15.93;;;6.75;;
65477;SDS011;53678;39.642;22.430;2023-02-26T13:54:07;15.45;;;7.20;;
65477;SDS011;53678;39.642;22.430;2023-02-26T13:59:02;11.35;;;3.88;;
65477;SDS011;53678;39.642;22.430;2023-02-26T14:09:44;12.45;;;6.18;;
65477;SDS011;53678;39.642;22.430;2023-02-26T14:22:52;23.95;;;10.68;;
65477;SDS011;53678;39.642;22.430;2023-02-26T14:36:22;10.57;;;3.13;;
65477;SDS011;53678;39.642;22.430;2023-02-26T14:39:16;6.85;;;3.80;;
65477;SDS011;53678;39.642;22.430;2023-02-26T14:41:59;10.45;;;4.05;;
65477;SDS011;53678;39.642;22.430;2023-02-26T14:44:30;11.73;;;3.50;;
65477;SDS011;53678;39.642;22.430;2023-02-26T14:47:01;10.65;;;3.13;;
65477;SDS011;53678;39.642;22.430;2023-02-26T14:49:33;16.08;;;3.10;;
65477;SDS011;53678;39.642;22.430;2023-02-26T14:57:46;10.88;;;3.30;;
65477;SDS011;53678;39.642;22.430;2023-02-26T15:00:42;8.15;;;3.20;;
65477;SDS011;53678;39.642;22.430;2023-02-26T15:15:07;9.80;;;3.38;;
65477;SDS011;53678;39.642;22.430;2023-02-26T15:25:37;14.50;;;3.50;;
65477;SDS011;53678;39.642;22.430;2023-02-26T15:28:09;11.35;;;4.03;;
65477;SDS011;53678;39.642;22.430;2023-02-26T15:30:47;13.20;;;3.30;;
65477;SDS011;53678;39.642;22.430;2023-02-26T15:33:13;14.32;;;3.30;;
65477;SDS011;53678;39.642;22.430;2023-02-26T15:35:42;12.93;;;2.97;;
65477;SDS011;53678;39.642;22.430;2023-02-26T15:38:09;10.32;;;2.90;;
65477;SDS011;53678;39.642;22.430;2023-02-26T15:40:35;14.82;;;4.47;;
65477;SDS011;53678;39.642;22.430;2023-02-26T15:43:04;10.98;;;3.80;;
65477;SDS011;53678;39.642;22.430;2023-02-26T15:45:33;16.02;;;5.10;;
65477;SDS011;53678;39.642;22.430;2023-02-26T15:48:10;12.70;;;3.50;;
65477;SDS011;53678;39.642;22.430;2023-02-26T15:50:40;11.48;;;3.72;;
65477;SDS011;53678;39.642;22.430;2023-02-26T15:53:11;10.18;;;3.70;;
65477;SDS011;53678;39.642;22.430;2023-02-26T15:55:46;17.00;;;3.25;;
65477;SDS011;53678;39.642;22.430;2023-02-26T15:58:22;9.20;;;3.35;;
65477;SDS011;53678;39.642;22.430;2023-02-26T16:00:59;10.47;;;3.20;;
65477;SDS011;53678;39.642;22.430;2023-02-26T16:03:30;14.48;;;3.85;;
65477;SDS011;53678;39.642;22.430;2023-02-26T16:05:57;12.02;;;3.85;;
65477;SDS011;53678;39.642;22.430;2023-02-26T16:08:24;16.73;;;4.10;;
65477;SDS011;53678;39.642;22.430;2023-02-26T16:10:50;11.50;;;4.55;;
65477;SDS011;53678;39.642;22.430;2023-02-26T16:13:27;13.00;;;3.72;;
65477;SDS011;53678;39.642;22.430;2023-02-26T16:15:57;12.10;;;4.32;;
65477;SDS011;53678;39.642;22.430;2023-02-26T16:18:26;7.97;;;3.63;;
65477;SDS011;53678;39.642;22.430;2023-02-26T16:20:52;18.55;;;4.05;;
65477;SDS011;53678;39.642;22.430;2023-02-26T16:26:14;14.98;;;4.95;;
65477;SDS011;53678;39.642;22.430;2023-02-26T16:28:46;12.07;;;4.75;;
65477;SDS011;53678;39.642;22.430;2023-02-26T16:31:19;16.40;;;3.80;;
65477;SDS011;53678;39.642;22.430;2023-02-26T16:33:54;15.32;;;4.65;;
65477;SDS011;53678;39.642;22.430;2023-02-26T16:36:31;15.70;;;3.67;;
65477;SDS011;53678;39.642;22.430;2023-02-26T16:39:22;11.65;;;3.45;;
65477;SDS011;53678;39.642;22.430;2023-02-26T16:41:59;10.25;;;3.40;;
65477;SDS011;53678;39.642;22.430;2023-02-26T16:46:57;14.43;;;4.05;;
65477;SDS011;53678;39.642;22.430;2023-02-26T16:49:25;13.52;;;4.20;;
65477;SDS011;53678;39.642;22.430;2023-02-26T16:51:55;13.85;;;3.42;;
65477;SDS011;53678;39.642;22.430;2023-02-26T16:54:24;19.85;;;4.35;;
65477;SDS011;53678;39.642;22.430;2023-02-26T16:56:56;15.82;;;4.43;;
65477;SDS011;53678;39.642;22.430;2023-02-26T16:59:24;14.00;;;5.13;;
65477;SDS011;53678;39.642;22.430;2023-02-26T17:02:01;11.18;;;4.70;;
65477;SDS011;53678;39.642;22.430;2023-02-26T17:04:31;12.73;;;3.83;;
65477;SDS011;53678;39.642;22.430;2023-02-26T17:06:59;14.05;;;3.55;;
65477;SDS011;53678;39.642;22.430;2023-02-26T17:12:02;15.07;;;3.33;;
65477;SDS011;53678;39.642;22.430;2023-02-26T17:14:38;16.25;;;3.60;;
65477;SDS011;53678;39.642;22.430;2023-02-26T17:17:06;13.35;;;3.72;;
65477;SDS011;53678;39.642;22.430;2023-02-26T17:19:32;12.57;;;3.10;;
65477;SDS011;53678;39.642;22.430;2023-02-26T17:21:58;12.43;;;3.38;;
65477;SDS011;53678;39.642;22.430;2023-02-26T17:24:34;14.05;;;4.22;;
65477;SDS011;53678;39.642;22.430;2023-02-26T17:27:02;15.45;;;4.55;;
65477;SDS011;53678;39.642;22.430;2023-02-26T17:29:38;12.45;;;4.82;;
65477;SDS011;53678;39.642;22.430;2023-02-26T17:32:15;10.88;;;3.42;;
65477;SDS011;53678;39.642;22.430;2023-02-26T17:34:43;14.77;;;4.10;;
65477;SDS011;53678;39.642;22.430;2023-02-26T17:37:10;18.20;;;5.28;;
65477;SDS011;53678;39.642;22.430;2023-02-26T17:39:37;19.92;;;4.32;;
65477;SDS011;53678;39.642;22.430;2023-02-26T17:42:02;22.67;;;5.03;;
65477;SDS011;53678;39.642;22.430;2023-02-26T17:44:28;26.27;;;6.43;;
65477;SDS011;53678;39.642;22.430;2023-02-26T17:46:54;24.42;;;6.95;;
65477;SDS011;53678;39.642;22.430;2023-02-26T17:49:20;24.55;;;7.40;;
65477;SDS011;53678;39.642;22.430;2023-02-26T17:51:45;19.17;;;6.10;;
65477;SDS011;53678;39.642;22.430;2023-02-26T17:54:11;15.00;;;4.50;;
65477;SDS011;53678;39.642;22.430;2023-02-26T17:56:36;12.30;;;4.57;;
65477;SDS011;53678;39.642;22.430;2023-02-26T17:59:03;92.80;;;34.80;;
65477;SDS011;53678;39.642;22.430;2023-02-26T18:01:29;63.72;;;26.95;;
65477;SDS011;53678;39.642;22.430;2023-02-26T18:03:55;40.75;;;14.13;;
65477;SDS011;53678;39.642;22.430;2023-02-26T18:06:21;30.15;;;12.15;;
65477;SDS011;53678;39.642;22.430;2023-02-26T18:08:49;22.23;;;8.48;;